Nearby METAR Reports

 

KSJC - San Jose, California, USA
Distance from station: NE 9mi, 14km
Updated: Sat, 25-Sep-2021 10:53pm PDT
Overcast
Overcast
 Wind from N
Wind: N 5 mph , 7 km/h
Temperature: 61°F , 16°C
Dew Point: 54°F , 12°C
Humidity: 77%
Barometer: 30.00 inHg , 1015.9 hPa
Clouds: Overcast
Visibility: 10 miles , 16 km
Cloud details: Few Clouds 1100 ft
Mostly cloudy 1800 ft
Overcast 5000 ft
2021/09/26 05:53 KSJC 260553Z 35004KT 10SM FEW011 BKN018 OVC050 16/12 A3000 RMK AO2 SLP160 FU OVC050 T01560122 10206 20156 51014
KRHV - San Jose/Reid, California, USA
Distance from station: ENE 12mi, 19km
Updated: Sat, 25-Sep-2021 9:55pm PDT
NOT Current
Clear
Clear
 Wind from WNW
Wind: WNW 5 mph , 7 km/h
Temperature: 61°F , 16°C
Dew Point: 54°F , 12°C
Humidity: 77%
Barometer: 30.00 inHg , 1015.9 hPa
Clouds: Clear
Visibility: 10 miles , 16 km
2021/09/26 04:55 KRHV 260455Z 30004KT 10SM SKC 16/12 A3000
 
KPAO - Palo Alto, California, USA
Distance from station: NNW 14mi, 23km
Updated: Sat, 25-Sep-2021 8:47pm PDT
NOT Current
Smoke, Clear
Smoke, Clear
 Wind from NW
Wind: NW 7 mph , 11 km/h
Temperature: 57°F , 14°C
Dew Point: 54°F , 12°C
Humidity: 88%
Barometer: 29.98 inHg , 1015.2 hPa
Summary: Smoke
Clouds: Clear
Visibility: 10 miles , 16 km
2021/09/26 03:47 KPAO 260347Z 32006KT 10SM FU SKC 14/12 A2998 RMK LAST
KSQL - San Carlos Airpo, California, USA
Distance from station: NW 21mi, 34km
Updated: Sat, 25-Sep-2021 11:15pm PDT
Overcast
Overcast
 Wind from W
Wind: W 8 mph , 13 km/h
Temperature: 59°F , 15°C
Dew Point: 54°F , 12°C
Humidity: 82%
Barometer: 30.02 inHg , 1016.6 hPa
Clouds: Overcast
Visibility: 10 miles , 16 km
Cloud details: Overcast 1400 ft
2021/09/26 06:15 KSQL 260615Z AUTO 27007KT 10SM OVC014 15/12 A3002 RMK AO2
 
KE16 - San Martin, California, USA
Distance from station: ESE 27mi, 43km
Updated: Sat, 25-Sep-2021 11:15pm PDT
Overcast
Overcast
 Wind from ESE
Wind: ESE 6 mph , 9 km/h
Temperature: 57°F , 14°C
Dew Point: 54°F , 12°C
Humidity: 88%
Barometer: 30.03 inHg , 1016.9 hPa
Clouds: Overcast
Visibility: 10 miles , 16 km
Cloud details: Overcast 6500 ft
2021/09/26 06:15 KE16 260615Z AUTO 12005KT 10SM OVC065 14/12 A3003 RMK AO2 PWINO PNO
KWVI - Watsonville, California, USA
Distance from station: SSE 27mi, 44km
Updated: Sat, 25-Sep-2021 10:53pm PDT
Overcast
Overcast
 Wind from calm
Wind: Calm
Temperature: 57°F , 14°C
Dew Point: 55°F , 13°C
Humidity: 94%
Barometer: 30.02 inHg , 1016.6 hPa
Clouds: Overcast
Visibility: 10 miles , 16 km
Cloud details: Overcast 800 ft
2021/09/26 05:53 KWVI 260553Z AUTO 00000KT 10SM OVC008 14/13 A3002 RMK AO2 SLP164 T01440128 10178 20144 51007
 
KHWD - Hayward, California, USA
Distance from station: N 28mi, 44km
Updated: Sat, 25-Sep-2021 11:16pm PDT
Overcast
Overcast
 Wind from WNW
Wind: WNW 13 mph , 20 km/h
Temperature: 61°F , 16°C
Dew Point: 54°F , 12°C
Humidity: 77%
Barometer: 30.01 inHg , 1016.3 hPa
Clouds: Overcast
Visibility: 10 miles , 16 km
Cloud details: Overcast 1600 ft
2021/09/26 06:16 KHWD 260616Z AUTO 29011KT 10SM OVC016 16/12 A3001 RMK AO2 T01560117
KSFO - San Francisco, California, USA
Distance from station: NW 30mi, 49km
Updated: Sat, 25-Sep-2021 10:56pm PDT
Mostly cloudy
Mostly cloudy
 Wind from W
Wind: W 13 mph , 20 km/h
Temperature: 59°F , 15°C
Dew Point: 54°F , 12°C
Humidity: 82%
Barometer: 30.01 inHg , 1016.3 hPa
Clouds: Mostly cloudy
Visibility: 10 miles , 16 km
Cloud details: Few Clouds 600 ft
Mostly cloudy 1300 ft
2021/09/26 05:56 KSFO 260556Z 27011KT 10SM FEW006 BKN013 15/12 A3001 RMK AO2 SLP161 T01500117 10172 20150 51014
 
KHAF - Half Moon Bay, California, USA
Distance from station: WNW 31mi, 50km
Updated: Sat, 25-Sep-2021 11:15pm PDT
Overcast
Overcast
 Wind from calm
Wind: Calm
Temperature: 57°F , 14°C
Dew Point: 54°F , 12°C
Humidity: 88%
Barometer: 30.03 inHg , 1016.9 hPa
Clouds: Overcast
Visibility: 9 miles , 14 km
Cloud details: Overcast 1200 ft
2021/09/26 06:15 KHAF 260615Z AUTO 00000KT 9SM OVC012 14/12 A3003 RMK AO2 PWINO
KLVK - Livermore, California, USA
Distance from station: NNE 31mi, 51km
Updated: Sat, 25-Sep-2021 10:53pm PDT
Clear
Clear
 Wind from WNW
Wind: WNW 13 mph , 20 km/h
Temperature: 57°F , 14°C
Dew Point: 54°F , 12°C
Humidity: 88%
Barometer: 29.99 inHg , 1015.6 hPa
Clouds: Clear
Visibility: 10 miles , 16 km
2021/09/26 05:53 KLVK 260553Z AUTO 29011KT 10SM CLR 14/12 A2999 RMK AO2 SLP152 T01440122 10233 20144 51017
 
KOAK - Oakland, California, USA
Distance from station: NNW 33mi, 53km
Updated: Sat, 25-Sep-2021 10:53pm PDT
Mostly cloudy
Mostly cloudy
 Wind from W
Wind: W 12 mph , 19 km/h
Temperature: 61°F , 16°C
Dew Point: 54°F , 12°C
Humidity: 77%
Barometer: 30.01 inHg , 1016.3 hPa
Clouds: Mostly cloudy
Visibility: 10 miles , 16 km
Cloud details: Mostly cloudy 1300 ft
2021/09/26 05:53 KOAK 260553Z 27010KT 10SM BKN013 16/12 A3001 RMK AO2 SLP162 T01610117 10178 20156 51014
KCVH - Hollister Muni, California, USA
Distance from station: SE 42mi, 68km
Updated: Sat, 25-Sep-2021 11:15pm PDT
Clear
Clear
 Wind from calm
Wind: Calm
Temperature: 55°F , 13°C
Dew Point: 52°F , 11°C
Humidity: 88%
Barometer: 30.02 inHg , 1016.6 hPa
Clouds: Clear
Visibility: 10 miles , 16 km
2021/09/26 06:15 KCVH 260615Z AUTO 00000KT 10SM CLR 13/11 A3002 RMK A01
 
KSNS - Salinas, California, USA
Distance from station: SSE 48mi, 77km
Updated: Sat, 25-Sep-2021 10:53pm PDT
Overcast
Overcast
 Wind from NW
Wind: NW 6 mph , 9 km/h
Temperature: 61°F , 16°C
Dew Point: 54°F , 12°C
Humidity: 77%
Barometer: 30.01 inHg , 1016.3 hPa
Clouds: Overcast
Visibility: 10 miles , 16 km
Cloud details: Overcast 1200 ft
2021/09/26 05:53 KSNS 260553Z AUTO 32005KT 10SM OVC012 16/12 A3001 RMK AO2 SLP172 T01610122 10183 20161 51008
KMRY - Monterey, California, USA
Distance from station: SSE 49mi, 78km
Updated: Sat, 25-Sep-2021 10:54pm PDT
Overcast
Overcast
 Wind from varies
Wind: varies 3 mph , 6 km/h
Temperature: 61°F , 16°C
Dew Point: 54°F , 12°C
Humidity: 77%
Barometer: 30.02 inHg , 1016.6 hPa
Clouds: Overcast
Visibility: 10 miles , 16 km
Cloud details: Overcast 1100 ft
2021/09/26 05:54 KMRY 260554Z AUTO VRB03KT 10SM OVC011 16/12 A3002 RMK AO2 SLP177 T01560122 10178 20156 51007
 
KCCR - Concord, California, USA
Distance from station: N 50mi, 81km
Updated: Sat, 25-Sep-2021 10:53pm PDT
Smoke, Clear
Smoke, Clear
 Wind from WSW
Wind: WSW 14 mph , 22 km/h
Temperature: 61°F , 16°C
Dew Point: 52°F , 11°C
Humidity: 72%
Barometer: 29.98 inHg , 1015.2 hPa
Summary: Smoke
Clouds: Clear
Visibility: 10 miles , 16 km
2021/09/26 05:53 KCCR 260553Z 24012KT 10SM FU CLR 16/11 A2998 RMK AO2 SLP140 T01560111 10250 20156 53017